Date,TemperatureHighF,TemperatureAvgF,TemperatureLowF,DewpointHighF,DewpointAvgF,DewpointLowF,HumidityHigh,HumidityAvg,HumidityLow,PressureMaxIn,PressureMinIn,WindSpeedMaxMPH,WindSpeedAvgMPH,GustSpeedMaxMPH,PrecipitationSumIn
2013-1-1,42.1,38.7,34.1,40.5,35.4,25.4,95,88,66,30.21,29.98,9,1,16,0.23
2013-1-2,41.3,34.6,32.8,40.0,30.9,28.1,95,86,80,30.21,29.98,4,1,9,0.08
2013-1-3,39.1,32.8,27.6,30.9,26.8,20.0,93,80,48,30.34,30.19,4,1,11,0.00
2013-1-4,35.9,29.5,23.4,24.8,21.5,18.4,81,72,61,30.43,30.33,8,2,19,0.00
2013-1-5,48.0,33.2,19.1,32.3,23.8,16.1,91,70,39,30.50,30.30,4,0,7,0.02
2013-1-6,37.4,35.5,33.8,34.2,32.3,28.9,93,88,74,30.31,30.14,5,2,11,0.00
2013-1-7,48.4,36.4,29.5,31.4,26.2,23.1,82,67,45,30.49,30.28,5,1,11,0.00
2013-1-8,53.8,37.2,25.7,29.9,24.7,19.5,86,64,28,30.48,30.38,4,1,9,0.00
2013-1-9,51.4,41.7,30.3,47.4,37.9,27.0,94,87,70,30.53,30.41,2,0,5,0.08
2013-1-10,60.5,49.2,39.4,50.9,42.3,35.2,95,79,56,30.55,30.34,6,1,13,0.00
2013-1-11,55.9,49.6,44.6,51.1,45.8,36.3,94,87,58,30.35,30.10,7,2,12,0.12
2013-1-12,68.8,58.1,48.8,62.3,55.3,47.1,96,91,76,30.19,30.03,4,0,11,0.08
2013-1-13,70.4,57.6,45.2,57.1,51.6,43.0,95,82,57,30.09,29.96,3,0,10,0.03
2013-1-14,58.1,50.3,40.8,54.8,48.2,38.9,96,92,87,30.25,30.02,4,0,10,1.11
2013-1-15,45.1,42.9,41.0,43.5,41.2,39.1,96,94,93,30.21,30.02,6,3,11,1.58
2013-1-16,52.6,44.3,41.2,51.2,42.5,39.6,96,94,88,30.08,29.96,6,1,9,0.47
2013-1-17,45.7,37.2,30.6,43.7,34.9,26.8,94,91,87,30.29,29.97,3,0,6,0.75
2013-1-18,33.7,26.7,16.3,28.5,23.5,14.9,95,88,80,30.58,30.29,2,0,12,0.39
2013-1-19,42.9,24.1,11.3,31.1,20.1,9.4,97,86,56,30.54,30.25,3,0,6,0.35
2013-1-20,39.3,30.5,20.2,31.7,26.4,18.8,97,85,74,30.26,30.18,6,2,12,0.00
2013-1-21,39.1,27.6,18.9,29.0,20.0,10.6,100,76,42,30.16,30.01,13,3,0,0.01
2013-1-22,24.2,18.7,14.4,10.4,0.9,-4.0,57,45,33,30.35,30.09,15,7,17,0.00
2013-1-23,32.2,22.5,14.7,22.0,10.3,0.7,76,59,50,30.42,30.14,8,3,19,0.00
2013-1-24,33.7,23.2,13.7,25.8,11.5,3.3,74,61,44,30.53,30.09,14,4,22,0.00
2013-1-25,30.0,21.2,15.3,29.5,16.3,6.2,98,82,57,30.51,30.17,9,3,15,0.00
2013-1-26,32.1,29.5,26.9,30.0,26.4,23.3,98,88,81,30.45,30.19,9,4,16,0.06
2013-1-27,36.6,29.4,22.1,27.7,24.0,19.6,91,81,68,30.56,30.44,7,2,12,0.11
2013-1-28,58.3,42.2,31.4,45.7,36.7,27.6,96,82,60,30.46,30.25,5,1,15,0.24
2013-1-29,65.1,49.9,39.4,53.0,45.6,38.9,100,87,61,30.27,29.97,3,0,6,0.03
2013-1-30,67.0,57.0,42.3,58.6,52.6,40.4,99,86,69,29.97,29.41,9,2,19,1.64
2013-1-31,42.4,31.3,26.5,40.4,23.9,18.5,94,74,62,30.00,29.42,15,6,24,0.11